Time;durP1;ratioP1;P1;durP2;ratioP2;P2;SDS_P1;SDS_P2;PMS_P1;PMS_P2;Temp;Humidity;BMP_temperature;BMP_pressure;BME280_temperature;BME280_humidity;BME280_pressure;Samples;Min_cycle;Max_cycle;Signal;HPM_P1;HPM_P2
2021/07/06 00:00:22;;;;;;;7.28;2.85;;;;;;;20.48;59.54;98576.59;5094210;28;20036;-91
2021/07/06 00:02:50;;;;;;;5.20;2.80;;;;;;;20.29;59.88;98563.50;5092559;28;20541;-90
2021/07/06 00:05:16;;;;;;;6.00;3.10;;;;;;;20.20;60.31;98570.41;5093593;28;20044;-92
2021/07/06 00:07:42;;;;;;;6.80;3.00;;;;;;;20.11;60.48;98554.88;5095613;28;20113;-93
2021/07/06 00:10:10;;;;;;;5.65;2.95;;;;;;;20.15;60.98;98569.88;5093344;28;20101;-90
2021/07/06 00:12:36;;;;;;;5.20;2.72;;;;;;;20.09;61.10;98567.59;5093309;28;20157;-90
2021/07/06 00:15:03;;;;;;;6.30;2.90;;;;;;;20.10;61.57;98569.31;5092786;28;20132;-89
2021/07/06 00:17:30;;;;;;;6.90;3.33;;;;;;;20.09;61.89;98567.59;5097701;28;20431;-90
2021/07/06 00:19:56;;;;;;;4.43;2.75;;;;;;;20.02;62.00;98569.88;5093363;28;20079;-91
2021/07/06 00:22:23;;;;;;;6.35;3.20;;;;;;;20.00;61.67;98565.56;5094220;28;20059;-92
2021/07/06 00:24:48;;;;;;;10.50;4.47;;;;;;;19.82;61.67;98552.34;5094137;28;20048;-92
2021/07/06 00:27:14;;;;;;;6.68;2.97;;;;;;;19.78;62.33;98563.44;5092873;28;20050;-89
2021/07/06 00:29:40;;;;;;;5.47;3.10;;;;;;;19.70;62.02;98561.28;5093680;28;20056;-89
2021/07/06 00:32:07;;;;;;;5.25;3.08;;;;;;;19.74;61.98;98562.81;5090837;28;20516;-93
2021/07/06 00:34:34;;;;;;;5.63;3.03;;;;;;;19.62;62.57;98566.28;5091269;28;20417;-89
2021/07/06 00:37:00;;;;;;;7.43;3.38;;;;;;;19.46;63.03;98561.06;5089463;28;20040;-90
2021/07/06 00:39:26;;;;;;;8.20;4.38;;;;;;;19.54;62.59;98565.94;5092338;28;20035;-92
2021/07/06 00:41:51;;;;;;;6.03;3.10;;;;;;;19.53;62.82;98564.22;5091126;28;20035;-90
2021/07/06 00:44:19;;;;;;;5.95;3.05;;;;;;;19.57;62.62;98572.00;5087937;28;20040;-91
2021/07/06 00:46:45;;;;;;;4.63;2.88;;;;;;;19.58;63.13;98583.63;5088870;28;20118;-91
2021/07/06 00:49:11;;;;;;;5.43;2.90;;;;;;;19.55;63.33;98584.72;5086631;28;20516;-90
2021/07/06 00:51:38;;;;;;;4.78;3.08;;;;;;;19.44;63.36;98577.34;5093908;28;20036;-89
2021/07/06 00:54:05;;;;;;;5.50;3.05;;;;;;;19.37;63.50;98581.41;5092663;28;20047;-90
2021/07/06 00:56:31;;;;;;;8.15;3.15;;;;;;;19.34;64.16;98581.59;5092422;28;20704;-91
2021/07/06 00:58:57;;;;;;;5.93;3.30;;;;;;;19.24;63.98;98572.41;5090961;28;20123;-90
2021/07/06 01:01:23;;;;;;;6.82;3.15;;;;;;;19.26;64.23;98582.13;5090296;28;20462;-92
2021/07/06 01:03:49;;;;;;;5.60;3.42;;;;;;;19.24;64.42;98591.28;5093350;28;20563;-91
2021/07/06 01:06:16;;;;;;;6.03;3.17;;;;;;;19.19;64.53;98577.22;5091056;28;20036;-90
2021/07/06 01:08:45;;;;;;;8.00;3.85;;;;;;;19.14;64.74;98568.59;5091825;28;20513;-89
2021/07/06 01:11:13;;;;;;;6.68;3.50;;;;;;;19.19;65.06;98582.59;5091811;28;20052;-90
2021/07/06 01:13:39;;;;;;;5.40;3.67;;;;;;;19.14;64.93;98565.88;5092901;28;20036;-90
2021/07/06 01:16:05;;;;;;;6.25;3.22;;;;;;;19.17;64.60;98569.25;5094159;28;20469;-89
2021/07/06 01:18:31;;;;;;;6.55;3.08;;;;;;;19.11;65.36;98571.50;5096383;28;20056;-90
2021/07/06 01:20:57;;;;;;;7.65;3.60;;;;;;;19.11;65.43;98574.19;5096378;28;20036;-90
2021/07/06 01:23:29;;;;;;;6.50;3.50;;;;;;;19.12;65.52;98584.84;5096227;28;20040;-90
2021/07/06 01:25:57;;;;;;;5.20;3.47;;;;;;;19.07;65.50;98562.72;5095487;28;20048;-90
2021/07/06 01:28:23;;;;;;;5.65;3.60;;;;;;;19.11;65.73;98579.56;5096908;28;20032;-92
2021/07/06 01:30:50;;;;;;;4.95;3.33;;;;;;;19.14;65.80;98596.38;5095194;28;20036;-89
2021/07/06 01:33:19;;;;;;;7.22;3.45;;;;;;;19.08;66.15;98586.88;5095953;28;20047;-89
2021/07/06 01:35:45;;;;;;;5.72;3.33;;;;;;;19.03;65.81;98578.22;5096364;28;20048;-90
2021/07/06 01:38:11;;;;;;;4.97;3.17;;;;;;;19.07;65.82;98581.59;5096604;28;20040;-90
2021/07/06 01:40:38;;;;;;;7.22;3.47;;;;;;;19.08;65.76;98580.59;5095684;28;21282;-91
2021/07/06 01:43:04;;;;;;;6.35;3.53;;;;;;;18.87;66.68;98555.94;5093906;28;20036;-90
2021/07/06 01:45:31;;;;;;;8.05;3.70;;;;;;;18.92;66.67;98566.41;5094536;28;20040;-90
2021/07/06 01:47:59;;;;;;;6.25;3.47;;;;;;;18.98;66.87;98583.06;5095301;28;20050;-91
2021/07/06 01:50:27;;;;;;;6.20;3.55;;;;;;;18.92;66.92;98578.06;5095323;28;20405;-90
2021/07/06 01:52:55;;;;;;;7.85;3.78;;;;;;;18.75;66.92;98570.16;5096081;28;20043;-91
2021/07/06 01:55:25;;;;;;;6.35;3.50;;;;;;;18.90;66.72;98576.44;5092947;28;20234;-91
2021/07/06 01:57:54;;;;;;;5.10;3.05;;;;;;;18.91;66.67;98586.22;5094988;28;20040;-91
2021/07/06 02:00:23;;;;;;;6.40;3.40;;;;;;;18.89;66.69;98580.97;5094076;28;20040;-90
2021/07/06 02:05:55;;;;;;;8.45;3.85;;;;;;;18.78;66.91;98578.94;5119606;27;20843;-89
2021/07/06 02:08:22;;;;;;;6.47;3.50;;;;;;;18.76;66.91;98580.84;5090260;28;20068;-89
2021/07/06 02:10:53;;;;;;;7.10;3.47;;;;;;;18.76;67.48;98591.63;5090786;28;20064;-91
2021/07/06 02:13:21;;;;;;;4.88;3.25;;;;;;;18.73;67.68;98597.19;5090287;28;20048;-89
2021/07/06 02:15:48;;;;;;;6.55;3.75;;;;;;;18.67;67.96;98600.25;5086082;28;20058;-89
2021/07/06 02:18:18;;;;;;;6.15;3.50;;;;;;;18.72;67.31;98597.28;5089860;28;20103;-89
2021/07/06 02:20:45;;;;;;;5.63;3.30;;;;;;;18.55;67.93;98576.81;5090711;28;20067;-90
2021/07/06 02:23:12;;;;;;;5.85;3.60;;;;;;;18.59;67.72;98576.50;5092721;28;20055;-91
2021/07/06 02:25:38;;;;;;;5.88;3.30;;;;;;;18.56;67.22;98562.38;5090962;28;20081;-90
2021/07/06 02:28:04;;;;;;;5.97;3.60;;;;;;;18.62;67.15;98570.91;5089378;28;20040;-91
2021/07/06 02:30:30;;;;;;;5.47;3.80;;;;;;;18.60;67.14;98563.91;5088753;28;20119;-91
2021/07/06 02:32:56;;;;;;;6.20;3.40;;;;;;;18.60;67.27;98577.38;5088332;28;20132;-90
2021/07/06 02:35:26;;;;;;;5.57;3.50;;;;;;;18.54;67.44;98567.88;5090523;28;20047;-89
2021/07/06 02:37:52;;;;;;;6.72;3.70;;;;;;;18.66;67.72;98585.94;5089480;28;20123;-91
2021/07/06 02:40:20;;;;;;;12.00;3.83;;;;;;;18.55;67.68;98563.34;5089319;28;20037;-89
2021/07/06 02:42:46;;;;;;;5.95;3.95;;;;;;;18.60;67.98;98590.84;5089564;28;20059;-90
2021/07/06 02:45:14;;;;;;;7.68;3.78;;;;;;;18.56;68.42;98590.16;5085125;28;20064;-90
2021/07/06 02:47:40;;;;;;;6.03;4.00;;;;;;;18.53;68.27;98595.75;5085260;28;20060;-90
2021/07/06 02:50:09;;;;;;;7.80;3.40;;;;;;;18.39;68.95;98579.56;5089559;28;20052;-89
2021/07/06 02:52:35;;;;;;;8.40;4.57;;;;;;;18.44;69.00;98583.72;5090139;28;20048;-90
2021/07/06 02:55:01;;;;;;;6.57;3.60;;;;;;;18.38;68.77;98585.94;5088211;28;20394;-90
2021/07/06 03:00:28;;;;;;;6.60;3.53;;;;;;;18.32;69.05;98584.47;5139005;27;1356146;-90
2021/07/06 03:02:56;;;;;;;6.35;3.80;;;;;;;18.24;69.18;98584.09;5163173;27;20047;-89
2021/07/06 03:05:23;;;;;;;5.73;3.93;;;;;;;18.22;69.00;98569.88;5162573;27;20030;-91
2021/07/06 03:07:50;;;;;;;5.30;3.45;;;;;;;18.32;68.98;98586.31;5167774;27;20041;-88
2021/07/06 03:10:17;;;;;;;7.25;3.80;;;;;;;18.33;68.80;98588.91;5161304;27;20042;-88
2021/07/06 03:12:44;;;;;;;6.30;3.50;;;;;;;18.21;68.97;98562.75;5162058;27;20108;-90
2021/07/06 03:15:12;;;;;;;7.70;3.58;;;;;;;18.15;69.08;98566.69;5165409;27;20035;-88
2021/07/06 03:17:39;;;;;;;5.50;3.40;;;;;;;18.19;69.14;98576.28;5162092;27;20061;-91
2021/07/06 03:20:07;;;;;;;6.15;3.53;;;;;;;18.16;69.10;98571.09;5161469;27;20117;-91
2021/07/06 03:22:33;;;;;;;7.25;3.75;;;;;;;18.20;69.64;98585.25;5165466;27;20038;-90
2021/07/06 03:24:59;;;;;;;7.93;3.88;;;;;;;18.07;70.05;98587.81;5163728;27;20062;-90
2021/07/06 03:27:25;;;;;;;7.00;4.00;;;;;;;17.98;70.37;98583.00;5160178;27;20035;-91
2021/07/06 03:29:51;;;;;;;5.68;3.75;;;;;;;18.04;70.24;98598.75;5163395;27;20035;-91
2021/07/06 03:32:17;;;;;;;5.90;4.03;;;;;;;17.99;70.57;98596.34;5162484;27;20127;-92
2021/07/06 03:34:45;;;;;;;6.15;3.83;;;;;;;17.83;70.54;98574.03;5165226;27;20039;-91
2021/07/06 03:37:11;;;;;;;8.00;4.18;;;;;;;17.88;70.92;98592.56;5168335;27;20051;-91
2021/07/06 03:39:37;;;;;;;11.98;4.45;;;;;;;17.86;70.37;98590.81;5162251;27;20115;-92
2021/07/06 03:42:05;;;;;;;7.53;3.75;;;;;;;17.92;70.42;98603.06;5158549;27;20038;-93
2021/07/06 03:44:31;;;;;;;7.20;4.38;;;;;;;17.85;70.32;98590.94;5165278;27;20060;-91
2021/07/06 03:46:56;;;;;;;6.90;4.28;;;;;;;17.93;70.40;98614.66;5161773;27;20031;-91
2021/07/06 03:49:22;;;;;;;8.07;3.97;;;;;;;17.85;71.07;98618.69;5164040;27;20034;-90
2021/07/06 03:51:50;;;;;;;6.55;3.90;;;;;;;17.77;70.86;98602.09;5156280;27;20113;-92
2021/07/06 03:54:16;;;;;;;5.93;3.70;;;;;;;17.80;70.67;98618.06;5166938;27;20052;-91
2021/07/06 03:56:41;;;;;;;9.20;4.20;;;;;;;17.76;70.94;98604.88;5158898;27;20043;-91
2021/07/06 03:59:07;;;;;;;6.40;4.00;;;;;;;17.83;70.73;98606.28;5161320;27;20048;-91
2021/07/06 04:01:33;;;;;;;7.30;4.05;;;;;;;17.85;71.01;98621.38;5162396;27;20547;-90
2021/07/06 04:03:59;;;;;;;6.25;4.38;;;;;;;17.83;71.14;98617.91;5163008;27;20027;-92
2021/07/06 04:06:25;;;;;;;5.63;3.60;;;;;;;17.86;71.17;98623.09;5160296;27;20039;-91
2021/07/06 04:08:52;;;;;;;6.10;4.03;;;;;;;17.73;71.25;98600.53;5161684;27;20370;-90
2021/07/06 04:11:18;;;;;;;7.03;3.85;;;;;;;17.85;70.89;98615.16;5148761;27;20034;-91
2021/07/06 04:13:44;;;;;;;6.82;4.07;;;;;;;17.86;71.03;98616.84;5152886;27;20066;-92
2021/07/06 04:16:10;;;;;;;7.32;4.13;;;;;;;17.90;71.37;98629.19;5148127;27;20394;-89
2021/07/06 04:18:36;;;;;;;6.80;3.92;;;;;;;17.91;71.05;98620.13;5147815;27;20027;-92
2021/07/06 04:21:04;;;;;;;5.93;3.95;;;;;;;17.98;71.28;98626.91;5148937;27;20065;-90
2021/07/06 04:23:30;;;;;;;6.10;4.32;;;;;;;17.95;71.42;98624.38;5152073;27;20034;-92
2021/07/06 04:25:57;;;;;;;8.45;3.92;;;;;;;17.89;71.64;98619.38;5147106;27;20564;-91
2021/07/06 04:28:23;;;;;;;7.32;4.07;;;;;;;17.89;71.80;98616.69;5135783;27;20050;-92
2021/07/06 04:30:48;;;;;;;5.00;3.40;;;;;;;17.96;71.75;98623.44;5120383;27;20035;-91
2021/07/06 04:33:14;;;;;;;8.98;4.07;;;;;;;17.92;71.80;98621.88;5130166;27;20047;-90
2021/07/06 04:35:40;;;;;;;6.90;3.78;;;;;;;17.97;71.97;98635.06;5136458;27;20035;-91
2021/07/06 04:38:06;;;;;;;7.13;3.83;;;;;;;18.05;71.95;98648.94;5133955;27;20039;-93
2021/07/06 04:40:32;;;;;;;6.57;3.92;;;;;;;18.00;71.50;98633.06;5135259;27;20423;-93
2021/07/06 04:43:01;;;;;;;7.00;3.97;;;;;;;18.01;71.35;98624.00;5135758;27;20039;-92
2021/07/06 04:45:27;;;;;;;7.75;5.45;;;;;;;18.05;71.26;98625.56;5133964;27;20050;-91
2021/07/06 04:47:52;;;;;;;6.82;3.88;;;;;;;18.17;71.31;98639.25;5136626;27;20442;-91
2021/07/06 04:50:18;;;;;;;9.90;4.25;;;;;;;18.31;70.75;98643.81;5134197;27;20039;-91
2021/07/06 04:55:45;;;;;;;5.75;4.05;;;;;;;18.60;68.94;98644.69;5106699;27;20411;-92
2021/07/06 04:58:10;;;;;;;6.82;4.28;;;;;;;18.71;68.21;98635.94;5107743;28;20493;-91
2021/07/06 05:00:36;;;;;;;5.75;4.35;;;;;;;19.47;65.91;98651.78;5106831;28;20038;-92
2021/07/06 05:03:02;;;;;;;7.38;3.72;;;;;;;20.13;63.09;98639.31;5111777;28;20113;-91
2021/07/06 05:05:28;;;;;;;7.72;3.70;;;;;;;20.74;61.06;98634.22;5110021;28;20048;-95
2021/07/06 05:07:55;;;;;;;7.18;3.78;;;;;;;21.19;59.40;98622.88;5111131;28;20044;-89
2021/07/06 05:10:22;;;;;;;6.38;3.97;;;;;;;21.38;58.34;98623.25;5108750;28;20039;-89
2021/07/06 05:12:49;;;;;;;10.55;4.25;;;;;;;21.83;57.12;98641.63;5110228;28;20375;-90
2021/07/06 05:15:15;;;;;;;6.80;3.92;;;;;;;21.99;56.64;98636.81;5107681;28;20043;-89
2021/07/06 05:17:41;;;;;;;6.43;3.70;;;;;;;21.99;56.60;98617.84;5111135;28;20092;-89
2021/07/06 05:20:08;;;;;;;7.50;4.30;;;;;;;21.93;56.81;98637.25;5111498;28;20031;-93
2021/07/06 05:22:34;;;;;;;9.70;4.05;;;;;;;22.68;54.81;98628.72;5111179;28;20563;-92
2021/07/06 05:25:00;;;;;;;9.05;3.83;;;;;;;23.03;53.34;98624.22;5110903;28;20036;-91
2021/07/06 05:27:26;;;;;;;7.38;3.70;;;;;;;23.54;51.62;98619.09;5110679;28;20556;-90
2021/07/06 05:29:53;;;;;;;7.60;3.78;;;;;;;23.74;50.95;98631.00;5110101;28;20043;-91
2021/07/06 05:32:21;;;;;;;4.88;3.20;;;;;;;24.24;50.24;98633.19;5110689;28;20047;-91
2021/07/06 05:34:47;;;;;;;8.93;4.00;;;;;;;24.64;50.20;98626.22;5103831;28;20131;-91
2021/07/06 05:37:13;;;;;;;6.93;3.72;;;;;;;24.49;48.92;98621.09;5109337;28;20279;-90
2021/07/06 05:39:39;;;;;;;6.15;3.50;;;;;;;24.59;49.02;98616.59;5110277;28;20043;-90
2021/07/06 05:42:05;;;;;;;6.72;3.35;;;;;;;24.94;47.84;98619.91;5108708;28;20035;-90
2021/07/06 05:44:31;;;;;;;6.57;3.53;;;;;;;25.08;48.15;98622.28;5110535;28;20398;-88
2021/07/06 05:46:59;;;;;;;6.25;3.70;;;;;;;24.80;48.70;98634.72;5105910;28;20090;-90
2021/07/06 05:49:25;;;;;;;6.70;3.50;;;;;;;24.76;49.25;98633.28;5111370;28;20379;-90
2021/07/06 05:51:56;;;;;;;6.95;3.80;;;;;;;24.20;50.26;98642.59;5110460;28;20086;-91
2021/07/06 05:54:22;;;;;;;7.07;3.65;;;;;;;24.01;50.47;98634.28;5111045;28;20051;-90
2021/07/06 05:56:49;;;;;;;6.40;3.55;;;;;;;23.40;51.75;98642.94;5111058;28;20048;-89
2021/07/06 05:59:15;;;;;;;4.78;3.50;;;;;;;23.59;51.48;98637.72;5113563;28;20032;-93
2021/07/06 06:01:41;;;;;;;8.77;3.50;;;;;;;23.58;51.37;98636.00;5108188;28;20093;-91
2021/07/06 06:04:08;;;;;;;6.15;3.72;;;;;;;23.71;50.79;98619.56;5109768;28;20045;-90
2021/07/06 06:06:34;;;;;;;7.20;3.50;;;;;;;24.12;49.75;98629.69;5096458;28;20044;-90
2021/07/06 06:09:00;;;;;;;6.40;3.55;;;;;;;24.34;49.01;98636.84;5097139;28;20500;-90
2021/07/06 06:11:26;;;;;;;6.38;3.80;;;;;;;24.02;50.09;98633.31;5097060;28;20056;-91
2021/07/06 06:13:52;;;;;;;9.60;3.75;;;;;;;24.42;49.14;98625.34;5096776;28;20366;-92
2021/07/06 06:16:18;;;;;;;8.23;4.10;;;;;;;24.76;48.08;98623.25;5095085;28;20062;-89
2021/07/06 06:18:44;;;;;;;4.68;3.47;;;;;;;24.87;47.36;98618.72;5096567;28;20064;-91
2021/07/06 06:21:11;;;;;;;8.95;4.10;;;;;;;25.03;48.24;98640.88;5095773;28;20470;-91
2021/07/06 06:23:37;;;;;;;11.05;3.60;;;;;;;24.96;48.41;98626.97;5096412;28;20035;-91
2021/07/06 06:26:03;;;;;;;6.22;3.67;;;;;;;24.44;48.68;98634.22;5095441;28;20036;-90
2021/07/06 06:28:28;;;;;;;6.50;4.00;;;;;;;24.26;49.04;98633.06;5095931;28;20043;-91
2021/07/06 06:30:55;;;;;;;7.55;3.65;;;;;;;24.30;48.85;98620.94;5094446;28;20040;-90
2021/07/06 06:33:21;;;;;;;7.18;3.83;;;;;;;24.63;48.74;98628.06;5094223;28;20036;-90
2021/07/06 06:35:47;;;;;;;7.32;4.00;;;;;;;24.69;48.07;98616.63;5096302;28;20044;-90
2021/07/06 06:38:14;;;;;;;8.15;3.65;;;;;;;24.86;47.35;98622.47;5093777;28;20036;-92
2021/07/06 06:40:40;;;;;;;7.03;3.95;;;;;;;24.85;46.53;98607.97;5095033;28;20523;-89
2021/07/06 06:43:06;;;;;;;6.70;3.78;;;;;;;24.95;47.45;98611.63;5095261;28;20036;-90
2021/07/06 06:45:32;;;;;;;6.85;3.78;;;;;;;24.87;48.10;98611.44;5094179;28;20489;-91
2021/07/06 06:47:58;;;;;;;8.30;3.85;;;;;;;24.49;48.81;98621.09;5095694;28;20040;-92
2021/07/06 06:50:24;;;;;;;9.30;4.78;;;;;;;24.87;48.21;98611.44;5095273;28;20044;-91
2021/07/06 06:52:49;;;;;;;6.75;3.97;;;;;;;25.19;48.11;98630.34;5094767;28;20040;-91
2021/07/06 06:55:17;;;;;;;7.82;4.32;;;;;;;25.41;46.84;98626.56;5095029;28;20114;-91
2021/07/06 06:57:43;;;;;;;8.73;4.13;;;;;;;25.27;47.51;98626.97;5093557;28;20036;-91
2021/07/06 07:00:10;;;;;;;8.93;3.88;;;;;;;24.94;47.58;98600.88;5093328;28;20051;-93
2021/07/06 07:02:38;;;;;;;11.13;3.75;;;;;;;24.90;48.09;98613.03;5095707;28;20489;-91
2021/07/06 07:05:05;;;;;;;6.60;4.10;;;;;;;24.60;48.37;98622.91;5095419;28;20053;-92
2021/07/06 07:07:31;;;;;;;6.97;4.20;;;;;;;25.10;47.65;98613.97;5094557;28;20056;-91
2021/07/06 07:09:57;;;;;;;9.00;4.22;;;;;;;25.73;46.35;98611.88;5094116;28;20032;-91
2021/07/06 07:12:25;;;;;;;10.20;3.78;;;;;;;25.94;45.96;98598.16;5095658;28;20494;-92
2021/07/06 07:14:50;;;;;;;6.73;3.83;;;;;;;26.23;44.83;98594.56;5091006;28;20117;-92
2021/07/06 07:17:17;;;;;;;7.82;4.13;;;;;;;26.55;44.69;98613.31;5093620;28;20071;-93
2021/07/06 07:19:43;;;;;;;7.93;4.10;;;;;;;26.82;43.15;98603.47;5092872;28;20050;-92
2021/07/06 07:22:09;;;;;;;11.10;4.10;;;;;;;26.99;43.13;98599.97;5095608;28;20245;-92
2021/07/06 07:24:35;;;;;;;5.75;3.63;;;;;;;27.29;42.48;98605.34;5093732;28;20044;-91
2021/07/06 07:27:01;;;;;;;6.68;4.10;;;;;;;27.09;42.87;98609.97;5094918;28;20494;-90
2021/07/06 07:29:29;;;;;;;7.57;3.70;;;;;;;27.20;41.92;98588.81;5094109;28;20127;-93
2021/07/06 07:31:55;;;;;;;6.00;4.05;;;;;;;27.53;42.09;98602.03;5094383;28;20056;-92
2021/07/06 07:34:20;;;;;;;6.72;3.70;;;;;;;26.77;43.19;98606.66;5095991;28;20553;-92
2021/07/06 07:36:47;;;;;;;7.32;3.92;;;;;;;26.52;43.30;98590.91;5092763;28;21651;-93
2021/07/06 07:39:13;;;;;;;7.53;4.55;;;;;;;26.92;42.34;98608.94;5090280;28;20039;-93
2021/07/06 07:41:39;;;;;;;6.35;3.78;;;;;;;27.18;42.74;98598.19;5094055;28;20043;-92
2021/07/06 07:44:05;;;;;;;7.50;3.90;;;;;;;27.40;41.30;98595.06;5093522;28;20028;-92
2021/07/06 07:46:32;;;;;;;8.38;4.50;;;;;;;27.56;41.32;98609.91;5090309;28;20424;-91
2021/07/06 07:48:58;;;;;;;6.00;4.10;;;;;;;27.65;40.85;98598.06;5095267;28;20044;-92
2021/07/06 07:51:24;;;;;;;7.03;3.90;;;;;;;27.90;39.88;98595.63;5095907;28;20094;-92
2021/07/06 07:53:50;;;;;;;6.05;3.83;;;;;;;27.59;40.50;98590.50;5093032;28;20056;-91
2021/07/06 07:56:16;;;;;;;6.97;3.70;;;;;;;27.47;40.81;98583.53;5093596;28;20040;-93
2021/07/06 07:58:42;;;;;;;6.65;3.88;;;;;;;28.08;40.80;98609.28;5095031;28;20036;-91
2021/07/06 08:01:08;;;;;;;7.30;3.53;;;;;;;28.33;40.14;98591.22;5093139;28;20036;-92
2021/07/06 08:03:35;;;;;;;10.32;6.05;;;;;;;28.61;38.84;98586.50;5090743;28;20040;-91
2021/07/06 08:06:01;;;;;;;9.15;4.32;;;;;;;28.56;39.26;98589.72;5093660;28;20039;-93
2021/07/06 08:08:27;;;;;;;5.90;3.83;;;;;;;29.04;38.25;98592.91;5094104;28;20067;-92
2021/07/06 08:10:53;;;;;;;6.70;3.63;;;;;;;28.61;37.48;98573.66;5095342;28;20146;-92
2021/07/06 08:13:20;;;;;;;7.25;3.60;;;;;;;28.96;38.06;98570.97;5090299;28;20141;-92
2021/07/06 08:15:45;;;;;;;11.57;4.00;;;;;;;28.75;38.03;98588.63;5094586;28;20055;-92
2021/07/06 08:18:11;;;;;;;5.63;3.72;;;;;;;28.98;37.41;98572.50;5095216;28;20032;-93
2021/07/06 08:20:39;;;;;;;10.48;3.70;;;;;;;29.29;36.96;98589.25;5095471;28;20044;-93
2021/07/06 08:23:04;;;;;;;6.70;3.47;;;;;;;29.49;36.92;98578.91;5092216;28;20086;-92
2021/07/06 08:25:30;;;;;;;7.15;3.90;;;;;;;29.68;37.20;98587.84;5095232;28;20490;-90
2021/07/06 08:27:56;;;;;;;6.95;3.90;;;;;;;28.85;37.63;98580.31;5095715;28;20032;-93
2021/07/06 08:30:22;;;;;;;11.30;3.97;;;;;;;28.38;38.50;98586.13;5092607;28;20388;-92
2021/07/06 08:32:48;;;;;;;8.52;3.67;;;;;;;28.75;37.63;98569.47;5093332;28;20497;-91
2021/07/06 08:35:14;;;;;;;6.32;3.45;;;;;;;29.25;37.00;98568.69;5093872;28;20028;-93
2021/07/06 08:37:42;;;;;;;6.50;3.63;;;;;;;29.63;36.04;98582.03;5105409;28;20040;-93
2021/07/06 08:40:10;;;;;;;9.32;4.07;;;;;;;29.85;36.18;98566.84;5096293;28;20493;-93
2021/07/06 08:42:37;;;;;;;6.75;3.40;;;;;;;29.89;34.69;98573.69;5097475;28;20059;-93
2021/07/06 08:45:04;;;;;;;7.72;3.60;;;;;;;29.79;34.73;98568.38;5097901;28;20036;-94
2021/07/06 08:47:30;;;;;;;6.30;3.70;;;;;;;29.86;35.31;98566.69;5094992;28;20040;-95
2021/07/06 08:49:56;;;;;;;9.52;3.47;;;;;;;29.84;34.71;98590.66;5094048;28;20055;-94
2021/07/06 08:52:23;;;;;;;13.32;3.97;;;;;;;29.79;34.86;98570.25;5095173;28;20040;-92
2021/07/06 08:54:50;;;;;;;7.57;3.33;;;;;;;29.67;35.78;98589.72;5094954;28;20047;-92
2021/07/06 09:00:17;;;;;;;7.20;3.47;;;;;;;30.29;34.66;98581.09;5132972;27;20378;-92
2021/07/06 09:02:54;;;;;;;6.93;3.50;;;;;;;30.70;33.35;98577.44;5129280;28;20126;-92
2021/07/06 09:05:21;;;;;;;8.02;3.22;;;;;;;30.46;32.08;98572.88;5134970;27;20039;-92
2021/07/06 09:07:47;;;;;;;6.63;3.47;;;;;;;30.75;32.78;98580.53;5135871;27;20035;-93
2021/07/06 09:10:14;;;;;;;9.75;3.60;;;;;;;30.85;32.63;98575.69;5133495;27;20035;-91
2021/07/06 09:12:41;;;;;;;9.07;3.60;;;;;;;31.14;32.12;98568.75;5134153;27;20092;-92
2021/07/06 09:15:24;;;;;;;7.10;3.30;;;;;;;31.17;31.42;98576.66;5132391;27;20501;-91
2021/07/06 09:18:05;;;;;;;7.50;3.22;;;;;;;31.23;30.91;98561.34;5133970;27;20488;-93
2021/07/06 09:20:30;;;;;;;9.02;3.17;;;;;;;31.43;30.85;98572.81;5133227;27;20039;-92
2021/07/06 09:23:17;;;;;;;5.43;3.03;;;;;;;31.26;31.64;98567.34;5133294;27;20147;-90
2021/07/06 09:25:43;;;;;;;6.47;3.20;;;;;;;31.13;30.44;98563.47;5132736;28;20039;-91
2021/07/06 09:28:21;;;;;;;6.25;2.88;;;;;;;31.25;30.85;98549.16;5131769;27;20042;-92
2021/07/06 09:30:49;;;;;;;7.05;2.97;;;;;;;31.41;30.03;98567.44;5125055;28;20514;-92
2021/07/06 09:33:26;;;;;;;6.75;3.00;;;;;;;31.49;30.64;98548.19;5133422;27;20058;-92
2021/07/06 09:35:51;;;;;;;6.10;3.00;;;;;;;31.61;30.04;98559.63;5134612;27;20058;-91
2021/07/06 09:38:18;;;;;;;6.15;2.80;;;;;;;31.55;30.29;98568.59;5133075;27;20036;-95
2021/07/06 09:40:45;;;;;;;6.22;2.75;;;;;;;30.99;30.46;98554.94;5133681;27;20039;-90
2021/07/06 09:43:20;;;;;;;5.88;2.78;;;;;;;30.23;31.67;98550.72;5133234;27;20481;-93
2021/07/06 09:45:59;;;;;;;6.75;2.90;;;;;;;30.30;31.36;98543.56;5131984;28;20047;-91
2021/07/06 09:48:26;;;;;;;6.75;3.13;;;;;;;30.52;31.00;98560.34;5132752;27;20381;-91
2021/07/06 09:51:08;;;;;;;6.03;2.83;;;;;;;31.03;30.80;98553.53;5131748;27;20039;-91
2021/07/06 09:53:33;;;;;;;4.18;2.47;;;;;;;30.94;30.32;98560.09;5132198;27;20074;-91
2021/07/06 09:56:08;;;;;;;5.40;2.65;;;;;;;31.08;30.37;98544.78;5133071;27;20472;-94
2021/07/06 09:58:52;;;;;;;4.57;2.90;;;;;;;30.71;30.37;98543.50;5133421;27;20055;-92
2021/07/06 10:01:24;;;;;;;5.70;2.70;;;;;;;30.95;31.07;98550.84;5130209;28;20562;-93
2021/07/06 10:03:54;;;;;;;4.40;2.67;;;;;;;31.15;30.71;98545.75;5134564;27;20039;-94
2021/07/06 10:06:21;;;;;;;8.55;3.33;;;;;;;31.43;29.54;98535.19;5135391;27;20377;-94
2021/07/06 10:08:49;;;;;;;5.20;2.70;;;;;;;31.71;28.91;98531.91;5135639;27;20032;-93
2021/07/06 10:11:15;;;;;;;6.40;3.10;;;;;;;31.92;29.50;98547.72;5121730;27;20036;-96
2021/07/06 10:13:41;;;;;;;5.82;2.90;;;;;;;31.77;29.41;98538.56;5120314;28;20374;-93
2021/07/06 10:16:07;;;;;;;5.22;2.72;;;;;;;32.07;29.44;98531.31;5117071;28;20133;-94
2021/07/06 10:18:36;;;;;;;6.30;2.92;;;;;;;31.12;30.08;98562.59;5120699;28;20042;-93
2021/07/06 10:21:02;;;;;;;;;;;;;;;31.35;29.80;98554.41;5118550;28;20135;-95
2021/07/06 10:23:28;;;;;;;7.82;3.00;;;;;;;31.59;29.78;98542.47;5118404;28;19969;-92
2021/07/06 10:25:56;;;;;;;10.10;2.90;;;;;;;32.09;29.25;98549.34;5119607;28;20585;-94
2021/07/06 10:28:25;;;;;;;6.28;2.80;;;;;;;32.31;28.83;98530.22;5118177;28;20368;-92
2021/07/06 10:30:51;;;;;;;4.82;2.70;;;;;;;32.66;28.40;98544.34;5116508;28;20520;-94
2021/07/06 10:33:29;;;;;;;5.07;2.67;;;;;;;32.60;28.45;98539.63;5118538;28;20040;-94
2021/07/06 10:35:58;;;;;;;5.68;2.70;;;;;;;32.69;26.96;98539.34;5118407;28;20042;-90
2021/07/06 10:38:56;;;;;;;3.75;2.53;;;;;;;32.49;27.53;98544.50;5118327;28;20044;-90
2021/07/06 10:41:50;;;;;;;5.07;2.35;;;;;;;32.78;27.50;98542.84;5118008;28;20036;-94
2021/07/06 10:44:17;;;;;;;8.13;2.85;;;;;;;32.98;26.83;98536.78;5120474;28;20043;-93
2021/07/06 10:46:45;;;;;;;6.82;2.58;;;;;;;33.11;26.36;98528.72;5119144;28;20047;-93
2021/07/06 10:49:15;;;;;;;3.60;2.60;;;;;;;32.98;25.73;98526.59;5118898;28;20042;-94
2021/07/06 10:51:49;;;;;;;4.72;2.55;;;;;;;32.98;26.93;98528.50;5118763;28;20055;-92
2021/07/06 10:54:17;;;;;;;3.50;2.70;;;;;;;33.03;26.98;98524.16;5119969;28;20554;-93
2021/07/06 10:56:45;;;;;;;7.63;3.03;;;;;;;33.05;26.66;98522.06;5117343;28;20074;-94
2021/07/06 11:00:10;;;;;;;3.75;2.70;;;;;;;33.19;25.89;98539.63;5120943;28;20051;-96
2021/07/06 11:03:15;;;;;;;4.32;2.50;;;;;;;33.20;27.56;98538.56;5092840;28;20050;-93
2021/07/06 11:05:45;;;;;;;3.78;2.78;;;;;;;31.95;27.20;98524.53;5108344;28;20035;-94
2021/07/06 11:08:43;;;;;;;3.78;2.90;;;;;;;32.24;27.19;98523.78;5121595;28;20036;-94
2021/07/06 11:11:34;;;;;;;6.20;2.83;;;;;;;32.66;26.80;98522.31;5114217;28;20071;-93
2021/07/06 11:14:17;;;;;;;4.43;2.55;;;;;;;32.76;27.12;98520.16;5115318;28;20044;-93
2021/07/06 11:16:43;;;;;;;3.97;2.58;;;;;;;31.92;27.57;98515.59;5115680;28;20122;-93
2021/07/06 11:19:33;;;;;;;4.65;2.83;;;;;;;32.16;27.42;98529.34;5116135;28;20125;-92
2021/07/06 11:22:08;;;;;;;3.60;2.42;;;;;;;32.50;28.56;98518.69;5115694;28;20047;-93
2021/07/06 11:24:39;;;;;;;3.38;2.50;;;;;;;32.82;26.88;98513.91;5118710;28;20058;-92
2021/07/06 11:27:06;;;;;;;4.20;2.35;;;;;;;33.01;27.26;98511.59;5116005;28;20032;-94
2021/07/06 11:29:34;;;;;;;5.90;2.60;;;;;;;32.76;26.96;98506.38;5115796;28;20380;-93
2021/07/06 11:32:12;;;;;;;3.97;2.70;;;;;;;32.93;26.51;98518.91;5114553;28;20085;-93
2021/07/06 11:34:38;;;;;;;4.57;2.45;;;;;;;33.03;26.09;98502.13;5115229;28;20036;-93
2021/07/06 11:37:05;;;;;;;5.47;2.47;;;;;;;33.24;26.04;98505.97;5117139;28;20059;-94
2021/07/06 11:39:34;;;;;;;4.35;2.58;;;;;;;33.32;26.64;98494.84;5115545;28;20044;-92
2021/07/06 11:42:00;;;;;;;3.67;2.65;;;;;;;33.30;26.12;98497.78;5115140;28;20101;-92
2021/07/06 11:44:27;;;;;;;4.80;2.60;;;;;;;33.25;27.90;98500.28;5115272;28;20044;-94
2021/07/06 11:47:06;;;;;;;5.23;2.63;;;;;;;33.43;25.80;98480.56;5115658;28;20088;-92
2021/07/06 11:49:33;;;;;;;4.28;2.85;;;;;;;33.56;25.90;98477.09;5116967;28;20380;-89